Aviation Digital Data Service (ADDS)

Output produced by METARs form (0529 UTC 17 September 2014)
found at http://www.aviationweather.gov/adds/metars/
 
KUNV 170515Z AUTO 00000KT 10SM SCT075 10/09 A3008 RMK AO2 T00960086
KUNV 170455Z AUTO 00000KT 10SM SCT075 10/09 A3008 RMK AO2 T01030086
KUNV 170435Z AUTO 00000KT 10SM SCT070 SCT090 11/09 A3008 RMK AO2 T01120090
KUNV 170415Z AUTO 00000KT 10SM SCT050 SCT060 SCT075 11/09 A3008 RMK AO2 T01130093
KUNV 170355Z AUTO 00000KT 10SM SCT050 BKN070 BKN085 11/10 A3008 RMK AO2 T01110096 401880111
KUNV 170335Z AUTO 00000KT 10SM OVC055 13/09 A3008 RMK AO2 T01270090
KUNV 170315Z AUTO 00000KT 10SM BKN055 OVC075 13/10 A3007 RMK AO2 T01270095
KUNV 170255Z AUTO 00000KT 10SM OVC055 11/10 A3008 RMK AO2 T01130096
KUNV 170235Z AUTO 00000KT 10SM SCT049 SCT070 BKN080 11/10 A3007 RMK AO2 T01110095
KUNV 170215Z AUTO 00000KT 10SM SCT070 SCT085 SCT090 12/09 A3007 RMK AO2 T01180089
KUNV 170155Z AUTO 27003KT 10SM SCT100 12/09 A3006 RMK AO2 T01180091
KUNV 170053Z 00000KT 10SM SKC 14/09 A3005
KUNV 162353Z 29005KT 10SM SKC 15/09 A3005
KUNV 162253Z 31005KT 10SM SKC 17/08 A3004
KUNV 162153Z 31005KT 10SM SCT050 17/08 A3004
KUNV 162053Z 00000KT 10SM SCT060 17/10 A3004
KUNV 161953Z 32006KT 10SM SCT035 BKN070 18/09 A3005
KUNV 161853Z 30005KT 10SM SCT035 BKN065 18/10 A3006
KUNV 161753Z 36004KT 10SM SCT035 SCT044 BKN060 17/10 A3007
KUNV 161653Z 35004KT 10SM SCT028 SCT044 BKN050 17/10 A3007
KUNV 161553Z 35006KT 10SM SCT025 SCT043 SCT050 17/11 A3008
KUNV 161522Z 35005KT 10SM SCT025 SCT040 BKN047 16/12 A3008
KUNV 161453Z 30005KT 10SM BKN023 OVC040 14/12 A3009
KUNV 161353Z COR 29004KT 6SM HZ OVC019 14/12 A3008
KUNV 161253Z 00000KT 7SM OVC016 13/12 A3007
KUNV 161153Z COR 00000KT 8SM OVC032 13/12 A3006
KUNV 161053Z 00000KT 8SM OVC050 12/11 A3003
KUNV 160953Z 00000KT 10SM DZ SCT050 BKN120 12/11 A3002
KUNV 160935Z AUTO 00000KT 7SM SCT050 SCT080 BKN120 12/12 A3002 RMK AO2 T01180115
KUNV 160915Z AUTO 27003KT 5SM -RA SCT048 BKN070 OVC080 12/11 A3003 RMK AO2 T01160112
KUNV 160855Z AUTO 29003KT 10SM -RA SCT060 OVC080 12/11 A3003 RMK AO2 T01180113
KUNV 160835Z AUTO 00000KT 7SM -DZ SCT060 OVC090 12/11 A3002 RMK AO2 T01170111
KUNV 160815Z AUTO 00000KT 10SM RA BKN060 OVC090 12/11 A3003 RMK AO2 T01180111
KUNV 160755Z AUTO 00000KT 10SM SCT060 SCT070 OVC100 12/11 A3004 RMK AO2 T01170110
KUNV 160735Z AUTO 00000KT 10SM SCT043 SCT050 OVC110 12/11 A3003 RMK AO2 T01230110
KUNV 160715Z AUTO 00000KT 10SM BKN043 BKN050 OVC110 13/11 A3003 RMK AO2 T01300108
KUNV 160655Z AUTO 00000KT 10SM SCT046 OVC110 13/11 A3003 RMK AO2 T01250110
KUNV 160635Z AUTO 00000KT 10SM OVC120 13/11 A3003 RMK AO2 T01280109
KUNV 160615Z AUTO 00000KT 10SM OVC120 13/11 A3003 RMK AO2 T01300107
KUNV 160555Z AUTO 00000KT 10SM OVC120 13/11 A3003 RMK AO2 T01280107 10159 20125
KUNV 160535Z AUTO 00000KT 10SM SCT090 OVC120 13/11 A3003 RMK AO2 T01250109
KUNV 160515Z AUTO 00000KT 10SM OVC080 13/11 A3003 RMK AO2 T01290107
KUNV 160455Z AUTO 26003KT 10SM OVC080 14/11 A3004 RMK AO2 T01370105
KUNV 160435Z AUTO 25003KT 10SM SCT080 BKN120 15/10 A3004 RMK AO2 T01460102
KUNV 160415Z AUTO 23003KT 10SM BKN120 13/10 A3005 RMK AO2 T01310104
KUNV 160355Z AUTO 00000KT 10SM CLR 14/11 A3005 RMK AO2 T01370105 401900050
KUNV 160335Z AUTO 00000KT 10SM CLR 15/10 A3005 RMK AO2 T01450103
KUNV 160315Z AUTO 00000KT 10SM CLR 14/11 A3005 RMK AO2 T01380105
KUNV 160255Z AUTO 00000KT 10SM CLR 13/11 A3006 RMK AO2 T01320108
KUNV 160235Z AUTO 00000KT 10SM CLR 13/11 A3006 RMK AO2 T01320109
KUNV 160215Z AUTO 29006KT 10SM CLR 13/11 A3006 RMK AO2 T01310109
KUNV 160155Z AUTO 00000KT 10SM CLR 14/10 A3006 RMK AO2 T01380104
KUNV 160053Z 00000KT 10SM SKC 15/10 A3009
KUNV 152353Z 00000KT 10SM SKC 15/10 A3010
KUNV 152253Z 18004KT 10SM FEW045 17/10 A3009
KUNV 152153Z 23005KT 10SM FEW040 18/10 A3010
KUNV 152053Z 21008KT 10SM FEW040 19/09 A3011
KUNV 151953Z 24005KT 10SM SCT040 19/09 A3015
KUNV 151853Z 21004KT 10SM SCT040 18/09 A3016
KUNV 151753Z 21006KT 10SM SCT039 17/09 A3020